Kalymnos, Greece
Current Conditions -  °F | °C
As of 6:20 PM on Monday 22 Dec 2014 (Local Time) from LGKO Reporting Station
Few Clouds Few Clouds  
Wind Chill: 50°   Ceiling: Unl
Heat Index: 50°   Visibility: 6mi
Dew Point: 30°   Wind: 16mph
Humidity: 47%   Direction: 350°N
Pressure: 30.21"   Gusts: 30mph
Location:  37°N, 26.97°E
Report Text: LGKO 221520Z 35014G26KT 9999 FEW020 10/M01 Q1023
Loading
Personal Weather Stations






























Interactive Weather Map New forecast layout! Learn more

10-Day Weather Forecast

Advertisements
Track Severe Weather on mobile